Johnsville, Kentucky
Current Conditions -  °F | °C
As of 8:35 AM on Saturday 20 Dec 2014 (Local Time) from KFGX Reporting Station
Light Snow Light Snow  
Wind Chill: 27°   Ceiling: 5000
Heat Index: 27°   Visibility: 2.5mi
Dew Point: 25°   Wind: 3mph
Humidity: 94%   Direction: 60°ENE
Pressure: 30.29"   Gusts: NA
Location:  38.7475°N, 84.1516°W
Report Text: KFGX 201335Z AUTO 06003KT 2 1/2SM -SN OVC050 M03/M04 A3029 RMK AO2 VIS 1 1/2V4 T10281037
Loading
Personal Weather Stations






























Interactive Weather Map New forecast layout! Learn more

10-Day Weather Forecast

Advertisements
Track Severe Weather on mobile